Estillfork, Alabama
Current Conditions -  °F | °C
As of 7:35 PM on Monday 20 Oct 2014 (Local Time) from K4A6 Reporting Station
NA  
Wind Chill: 57°   Ceiling: NA
Heat Index: 57°   Visibility: 10mi
Dew Point: 54°   Wind: 0mph
Humidity: 88%   Direction: NA
Pressure: 30.03"   Gusts: NA
Location:  34.91°N, 86.17°W
Report Text: K4A6 210035Z AUTO 00000KT 10SM 14/12 A3003 RMK AO2
Loading
Personal Weather Stations






























Interactive Weather Map
Tropical Storm Tracking
New forecast layout! Learn more

10-Day Weather Forecast

Advertisements
Track Severe Weather on mobile